Strona główna
METAR-TAF:

METAR-TAF

Lotnisko :

Portage Glacier, Alaska, Stany Zjednoczone

Szerokość geograficzna: 60-47N, Długość geograficzna: 148-50W, wysokość: 29 m

Aktualna obserwacja pogody

Raport powstał 27 minut temu, godzina 14:53 UTC
Cisza
Temperatura 10°C
Wilgotność 82%
Ciśnienie 1013 hPa
Widzialność: 16.1 km
Przerywane chmury na wysokości 7500 ft

METAR: PATO 211453Z AUTO 00000KT 10SM BKN075 10/07 A2992 RMK AO2 SLP131 T01000067 56007 TSNO

czas: 07:20 (15:20 UTC)


TAF: brakujący

Obserwacja i prognoza pogody dla ponad 4000 lotnisk (raport METAR i TAF).

Dostępne stacje oznaczono żółtymi i czerwonymi punktami na mapie.

Najedź kursorem aby zobaczyć nazwę stacji.

Kliknij aby zobaczyć obserwacje i prognozy pogody.

Aby zmienić mapę: kliknij na zielony przycisk z czarnym krzyżykiem, aby powiększyć; na zielony przycisk z myślnikiem, aby pomniejszyć; na zielone strzałki, aby przejść do map sąsiednich.


METAR-TAF: